Terminal Aerodrome Forecast
Issued by NWS

Home | Current Version | Previous Version | Text Only | Print | Product List | Glossary Off
Versions: 1 2 3 4 5 6 7 8 9 10 11 12 13 14 15 16 17

000
FTUS41 KCLE 282110 AAA
TAFFDY
TAF AMD
KFDY 282110Z 2821/2918 05010KT P6SM OVC012
     FM290100 03012KT P6SM VCSH OVC003
     FM291000 36004KT 3SM -DZ BR OVC003
     FM291500 01005KT P6SM SCT008 OVC015=

USA.gov is the U.S. government's official web portal to all federal, state and local government web resources and services.